createdAt,value
2022-12-02T00:00:29.856Z,5.93
2022-12-02T00:02:58.446Z,6.00
2022-12-02T00:05:32.187Z,5.96
2022-12-02T00:08:19.856Z,5.92
2022-12-02T00:10:46.936Z,5.98
2022-12-02T00:13:29.142Z,5.97
2022-12-02T00:15:58.118Z,5.95
2022-12-02T00:18:27.825Z,5.96
2022-12-02T00:20:55.355Z,5.95
2022-12-02T00:23:22.177Z,5.91
2022-12-02T00:25:51.197Z,5.93
2022-12-02T00:28:20.864Z,5.92
2022-12-02T00:30:47.479Z,5.96
2022-12-02T00:33:15.645Z,5.97
2022-12-02T00:35:42.308Z,5.97
2022-12-02T00:38:11.167Z,5.94
2022-12-02T00:40:37.728Z,5.90
2022-12-02T00:43:22.908Z,5.84
2022-12-02T00:46:07.943Z,5.81
2022-12-02T00:48:35.309Z,5.76
2022-12-02T00:51:03.637Z,5.67
2022-12-02T00:53:32.430Z,5.77
2022-12-02T00:56:01.247Z,5.77
2022-12-02T00:58:27.844Z,5.70
2022-12-02T01:00:54.706Z,5.70
2022-12-02T01:03:21.493Z,5.65
2022-12-02T01:05:48.040Z,5.67
2022-12-02T01:08:14.698Z,5.57
2022-12-02T01:10:43.640Z,5.54
2022-12-02T01:13:10.250Z,5.58
2022-12-02T01:15:36.780Z,5.57
2022-12-02T01:18:03.313Z,5.59
2022-12-02T01:20:29.923Z,5.48
2022-12-02T01:22:56.507Z,5.53
2022-12-02T01:25:23.059Z,5.49
2022-12-02T01:27:50.855Z,5.47
2022-12-02T01:30:19.837Z,5.44
2022-12-02T01:32:46.412Z,5.43
2022-12-02T01:35:13.030Z,5.38
2022-12-02T01:37:39.847Z,5.42
2022-12-02T01:40:08.113Z,5.42
2022-12-02T01:42:34.739Z,5.34
2022-12-02T01:45:01.646Z,5.39
2022-12-02T01:47:28.647Z,5.30
2022-12-02T01:49:55.524Z,5.36
2022-12-02T01:52:22.606Z,5.26
2022-12-02T01:54:51.353Z,5.19
2022-12-02T01:57:22.516Z,5.16
2022-12-02T01:59:49.383Z,5.03
2022-12-02T02:02:33.493Z,5.07
2022-12-02T02:05:22.126Z,5.08
2022-12-02T02:07:52.107Z,5.04
2022-12-02T02:10:19.989Z,5.07
2022-12-02T02:12:50.774Z,5.05
2022-12-02T02:15:18.867Z,5.04
2022-12-02T02:17:45.650Z,5.03
2022-12-02T02:20:24.716Z,5.03
2022-12-02T02:23:06.585Z,4.98
2022-12-02T02:25:37.757Z,4.93
2022-12-02T02:28:08.177Z,4.91
2022-12-02T02:30:36.498Z,4.93
2022-12-02T02:33:06.145Z,4.94
2022-12-02T02:35:38.381Z,4.75
2022-12-02T02:38:07.596Z,4.87
2022-12-02T02:40:34.277Z,4.95
2022-12-02T02:43:03.084Z,4.91
2022-12-02T02:45:36.764Z,4.80
2022-12-02T02:48:06.433Z,4.81
2022-12-02T02:50:35.027Z,4.81
2022-12-02T02:53:01.877Z,4.74
2022-12-02T02:55:31.342Z,4.80
2022-12-02T02:58:22.791Z,4.76
2022-12-02T03:00:59.754Z,4.74
2022-12-02T03:03:31.186Z,4.71
2022-12-02T03:05:59.808Z,4.68
2022-12-02T03:08:29.239Z,4.65
2022-12-02T03:10:58.656Z,4.74
2022-12-02T03:13:26.344Z,4.73
2022-12-02T03:15:53.250Z,4.70
2022-12-02T03:18:20.259Z,4.68
2022-12-02T03:20:49.951Z,4.63
2022-12-02T03:23:17.475Z,4.60
2022-12-02T03:25:47.329Z,4.60
2022-12-02T03:28:14.287Z,4.57
2022-12-02T03:30:41.206Z,4.51
2022-12-02T03:33:08.502Z,4.60
2022-12-02T03:35:35.294Z,4.58
2022-12-02T03:38:01.910Z,4.60
2022-12-02T03:40:29.633Z,4.57
2022-12-02T03:42:58.762Z,4.58
2022-12-02T03:45:26.109Z,4.60
2022-12-02T03:47:53.314Z,4.53
2022-12-02T03:50:22.853Z,4.49
2022-12-02T03:52:49.855Z,4.52
2022-12-02T03:55:16.593Z,4.45
2022-12-02T03:57:45.675Z,4.40
2022-12-02T04:00:16.143Z,4.46
2022-12-02T04:02:45.476Z,4.40
2022-12-02T04:05:12.159Z,4.40
2022-12-02T04:07:41.235Z,4.44
2022-12-02T04:10:08.515Z,4.46
2022-12-02T04:12:37.546Z,4.39
2022-12-02T04:15:04.552Z,4.44
2022-12-02T04:17:31.145Z,4.37
2022-12-02T04:20:00.090Z,4.31
2022-12-02T04:22:28.998Z,4.37
2022-12-02T04:24:58.931Z,4.26
2022-12-02T04:27:26.281Z,4.30
2022-12-02T04:29:52.908Z,4.32
2022-12-02T04:32:21.720Z,4.24
2022-12-02T04:34:48.681Z,4.19
2022-12-02T04:37:15.368Z,4.18
2022-12-02T04:39:41.882Z,4.09
2022-12-02T04:42:08.462Z,4.14
2022-12-02T04:44:34.991Z,4.14
2022-12-02T04:47:03.843Z,4.02
2022-12-02T04:49:30.443Z,4.13
2022-12-02T04:51:57.027Z,4.10
2022-12-02T04:54:23.558Z,4.05
2022-12-02T04:56:50.124Z,4.12
2022-12-02T04:59:16.651Z,4.10
2022-12-02T05:01:45.384Z,3.89
2022-12-02T05:04:14.327Z,4.06
2022-12-02T05:06:40.967Z,4.03
2022-12-02T05:09:09.894Z,3.97
2022-12-02T05:11:36.806Z,4.00
2022-12-02T05:14:03.661Z,4.01
2022-12-02T05:16:32.845Z,4.02
2022-12-02T05:18:59.465Z,3.98
2022-12-02T05:21:26.052Z,3.97
2022-12-02T05:23:52.583Z,4.02
2022-12-02T05:26:19.190Z,4.05
2022-12-02T05:28:45.804Z,4.06
2022-12-02T05:31:12.412Z,4.07
2022-12-02T05:33:39.132Z,3.96
2022-12-02T05:36:05.987Z,4.06
2022-12-02T05:38:32.548Z,3.99
2022-12-02T05:40:59.131Z,3.97
2022-12-02T05:43:27.221Z,4.01
2022-12-02T05:45:59.309Z,3.95
2022-12-02T05:48:26.781Z,4.03
2022-12-02T05:50:54.316Z,4.00
2022-12-02T05:53:28.300Z,4.00
2022-12-02T05:55:57.390Z,3.97
2022-12-02T05:58:24.225Z,3.83
2022-12-02T06:00:58.822Z,3.97
2022-12-02T06:03:25.589Z,3.97
2022-12-02T06:05:56.307Z,3.98
2022-12-02T06:08:28.669Z,3.99
2022-12-02T06:11:04.153Z,4.05
2022-12-02T06:13:39.081Z,4.03
2022-12-02T06:16:12.366Z,4.04
2022-12-02T06:18:39.984Z,4.04
2022-12-02T06:21:14.035Z,4.00
2022-12-02T06:23:46.567Z,3.99
2022-12-02T06:26:18.865Z,3.87
2022-12-02T06:28:48.466Z,3.90
2022-12-02T06:31:34.653Z,3.94
2022-12-02T06:34:21.056Z,3.93
2022-12-02T06:36:47.651Z,3.92
2022-12-02T06:39:23.339Z,3.95
2022-12-02T06:41:50.845Z,3.93
2022-12-02T06:44:41.563Z,3.93
2022-12-02T06:47:32.786Z,3.91
2022-12-02T06:50:27.578Z,3.89
2022-12-02T06:53:02.874Z,3.89
2022-12-02T06:55:34.956Z,3.86
2022-12-02T06:58:09.706Z,3.89
2022-12-02T07:00:40.229Z,3.85
2022-12-02T07:03:22.916Z,3.88
2022-12-02T07:05:49.627Z,3.79
2022-12-02T07:08:16.222Z,3.87
2022-12-02T07:10:42.802Z,3.75
2022-12-02T07:13:23.780Z,3.79
2022-12-02T07:15:50.520Z,3.70
2022-12-02T07:18:21.400Z,3.78
2022-12-02T07:20:49.026Z,3.78
2022-12-02T07:23:26.481Z,3.65
2022-12-02T07:25:55.775Z,3.71
2022-12-02T07:28:40.653Z,3.76
2022-12-02T07:31:21.331Z,3.78
2022-12-02T07:33:48.941Z,3.74
2022-12-02T07:36:15.516Z,3.74
2022-12-02T07:41:36.135Z,3.76
2022-12-02T07:44:05.193Z,3.76
2022-12-02T07:46:34.411Z,3.74
2022-12-02T07:49:05.499Z,3.70
2022-12-02T07:51:32.549Z,3.67
2022-12-02T07:54:04.443Z,3.67
2022-12-02T07:56:33.151Z,3.64
2022-12-02T07:59:11.766Z,3.64
2022-12-02T08:01:38.951Z,3.64
2022-12-02T08:04:08.439Z,3.60
2022-12-02T08:06:39.360Z,3.63
2022-12-02T08:09:08.055Z,3.64
2022-12-02T08:11:34.827Z,3.65
2022-12-02T08:14:01.430Z,3.68
2022-12-02T08:16:28.113Z,3.63
2022-12-02T08:18:54.869Z,3.70
2022-12-02T08:21:21.423Z,3.67
2022-12-02T08:23:48.802Z,3.64
2022-12-02T08:26:15.505Z,3.64
2022-12-02T08:28:42.117Z,3.63
2022-12-02T08:31:08.898Z,3.70
2022-12-02T08:33:37.908Z,3.69
2022-12-02T08:36:06.705Z,3.71
2022-12-02T08:38:35.626Z,3.63
2022-12-02T08:41:02.162Z,3.65
2022-12-02T08:43:31.052Z,3.67
2022-12-02T08:45:57.756Z,3.67
2022-12-02T08:48:26.794Z,3.72
2022-12-02T08:50:55.022Z,3.66
2022-12-02T08:53:22.423Z,3.64
2022-12-02T08:55:52.278Z,3.62
2022-12-02T08:58:19.194Z,3.61
2022-12-02T09:00:45.845Z,3.57
2022-12-02T09:03:12.485Z,3.59
2022-12-02T09:05:41.417Z,3.70
2022-12-02T09:08:08.337Z,3.69
2022-12-02T09:10:35.167Z,3.69
2022-12-02T09:13:01.778Z,3.46
2022-12-02T09:15:28.364Z,3.67
2022-12-02T09:17:57.175Z,3.56
2022-12-02T09:20:23.710Z,3.62
2022-12-02T09:22:50.259Z,3.61
2022-12-02T09:25:21.333Z,3.62
2022-12-02T09:27:59.977Z,3.59
2022-12-02T09:30:30.613Z,3.60
2022-12-02T09:33:01.958Z,3.54
2022-12-02T09:35:28.721Z,3.55
2022-12-02T09:37:57.896Z,3.58
2022-12-02T09:40:26.082Z,3.58
2022-12-02T09:42:52.903Z,3.49
2022-12-02T09:45:19.677Z,3.53
2022-12-02T09:47:46.364Z,3.46
2022-12-02T09:50:17.353Z,3.50
2022-12-02T09:52:45.038Z,3.52
2022-12-02T09:55:14.826Z,3.53
2022-12-02T09:57:41.468Z,3.54
2022-12-02T10:00:16.278Z,3.59
2022-12-02T10:02:46.015Z,3.59
2022-12-02T10:05:21.328Z,3.56
2022-12-02T10:07:49.971Z,3.50
2022-12-02T10:10:22.686Z,3.54
2022-12-02T10:12:53.050Z,3.64
2022-12-02T10:15:25.329Z,3.55
2022-12-02T10:17:53.110Z,3.63
2022-12-02T10:20:29.024Z,3.65
2022-12-02T10:23:25.823Z,3.64
2022-12-02T10:25:58.404Z,3.62
2022-12-02T10:28:29.047Z,3.70
2022-12-02T10:31:05.033Z,3.69
2022-12-02T10:33:38.313Z,3.76
2022-12-02T10:36:07.127Z,3.72
2022-12-02T10:38:41.230Z,3.75
2022-12-02T10:41:13.268Z,3.73
2022-12-02T10:43:43.513Z,3.75
2022-12-02T10:46:15.724Z,3.76
2022-12-02T10:48:43.259Z,3.80
2022-12-02T10:51:16.711Z,3.83
2022-12-02T10:53:44.877Z,3.80
2022-12-02T10:56:25.540Z,3.86
2022-12-02T10:58:55.425Z,3.86
2022-12-02T11:01:24.766Z,3.82
2022-12-02T11:03:54.128Z,3.88
2022-12-02T11:06:21.221Z,3.87
2022-12-02T11:08:48.996Z,3.90
2022-12-02T11:11:36.590Z,3.84
2022-12-02T11:14:12.439Z,3.95
2022-12-02T11:16:53.903Z,3.96
2022-12-02T11:19:42.258Z,3.99
2022-12-02T11:22:48.097Z,3.98
2022-12-02T11:25:43.386Z,3.91
2022-12-02T11:28:29.904Z,3.86
2022-12-02T11:31:19.259Z,3.85
2022-12-02T11:33:56.504Z,3.82
2022-12-02T11:36:37.026Z,3.81
2022-12-02T11:39:08.466Z,3.75
2022-12-02T11:41:50.423Z,3.84
2022-12-02T11:44:28.547Z,3.80
2022-12-02T11:47:01.469Z,3.81
2022-12-02T11:49:45.956Z,3.90
2022-12-02T11:52:20.641Z,3.94
2022-12-02T11:54:52.728Z,3.93
2022-12-02T11:57:26.646Z,3.94
2022-12-02T11:59:53.514Z,4.02
2022-12-02T12:02:22.338Z,4.07
2022-12-02T12:05:08.239Z,4.10
2022-12-02T12:08:03.223Z,4.11
2022-12-02T12:10:39.643Z,4.10
2022-12-02T12:13:15.240Z,4.06
2022-12-02T12:15:51.130Z,4.06
2022-12-02T12:18:47.281Z,4.08
2022-12-02T12:21:38.340Z,4.09
2022-12-02T12:24:20.810Z,4.07
2022-12-02T12:26:50.284Z,4.07
2022-12-02T12:29:18.214Z,4.03
2022-12-02T12:31:45.326Z,4.04
2022-12-02T12:34:21.524Z,4.08
2022-12-02T12:36:51.201Z,4.08
2022-12-02T12:39:18.553Z,4.09
2022-12-02T12:42:02.841Z,3.99
2022-12-02T12:44:33.100Z,4.01
2022-12-02T12:47:07.210Z,4.06
2022-12-02T12:49:36.111Z,4.02
2022-12-02T12:52:11.858Z,3.99
2022-12-02T12:54:41.729Z,4.05
2022-12-02T12:57:08.559Z,4.10
2022-12-02T12:59:37.593Z,4.02
2022-12-02T13:02:04.228Z,4.11
2022-12-02T13:04:30.885Z,4.00
2022-12-02T13:06:57.392Z,3.98
2022-12-02T13:09:23.953Z,3.98
2022-12-02T13:11:50.512Z,3.92
2022-12-02T13:14:19.443Z,4.06
2022-12-02T13:16:46.129Z,3.97
2022-12-02T13:19:12.733Z,3.87
2022-12-02T13:21:39.371Z,3.86
2022-12-02T13:24:06.207Z,3.83
2022-12-02T13:26:37.553Z,3.70
2022-12-02T13:29:04.252Z,3.71
2022-12-02T13:31:30.896Z,3.70
2022-12-02T13:33:57.611Z,3.66
2022-12-02T13:36:24.177Z,3.57
2022-12-02T13:38:50.743Z,3.56
2022-12-02T13:41:17.322Z,3.56
2022-12-02T13:43:46.164Z,3.61
2022-12-02T13:46:12.836Z,3.58
2022-12-02T13:48:39.558Z,3.65
2022-12-02T13:51:06.356Z,3.68
2022-12-02T13:53:32.894Z,3.71
2022-12-02T13:55:59.442Z,3.56
2022-12-02T13:58:25.956Z,3.75
2022-12-02T14:00:52.569Z,3.77
2022-12-02T14:03:21.444Z,3.72
2022-12-02T14:05:48.371Z,3.76
2022-12-02T14:08:15.010Z,3.74
2022-12-02T14:10:44.106Z,3.85
2022-12-02T14:13:17.237Z,3.79
2022-12-02T14:15:46.299Z,3.86
2022-12-02T14:18:13.932Z,3.79
2022-12-02T14:20:40.556Z,3.83
2022-12-02T14:23:08.304Z,3.84
2022-12-02T14:25:35.112Z,3.86
2022-12-02T14:28:02.253Z,3.88
2022-12-02T14:30:29.179Z,3.79
2022-12-02T14:32:55.758Z,3.81
2022-12-02T14:35:22.391Z,3.86
2022-12-02T14:37:49.032Z,3.84
2022-12-02T14:40:15.694Z,3.81
2022-12-02T14:42:42.347Z,3.80
2022-12-02T14:45:11.574Z,3.72
2022-12-02T14:47:42.767Z,3.75
2022-12-02T14:50:09.481Z,3.79
2022-12-02T14:52:37.600Z,3.80
2022-12-02T14:55:07.514Z,3.75
2022-12-02T14:57:34.183Z,3.70
2022-12-02T15:00:03.542Z,3.65
2022-12-02T15:02:32.810Z,3.62
2022-12-02T15:04:59.346Z,3.60
2022-12-02T15:07:27.207Z,3.58
2022-12-02T15:09:59.541Z,3.58
2022-12-02T15:12:28.797Z,3.57
2022-12-02T15:17:52.762Z,3.49
2022-12-02T15:20:19.552Z,3.42
2022-12-02T15:22:50.199Z,3.45
2022-12-02T15:25:17.948Z,3.38
2022-12-02T15:27:44.736Z,3.34
2022-12-02T15:30:12.815Z,3.27
2022-12-02T15:32:40.571Z,3.27
2022-12-02T15:35:09.273Z,3.27
2022-12-02T15:37:35.894Z,3.23
2022-12-02T15:40:03.823Z,3.14
2022-12-02T15:42:30.403Z,3.20
2022-12-02T15:44:58.019Z,3.16
2022-12-02T15:47:24.714Z,3.19
2022-12-02T15:49:54.365Z,3.19
2022-12-02T15:52:21.374Z,3.18
2022-12-02T15:54:49.369Z,3.17
2022-12-02T15:57:16.248Z,3.11
2022-12-02T15:59:42.823Z,3.08
2022-12-02T16:02:12.036Z,3.09
2022-12-02T16:04:38.649Z,3.18
2022-12-02T16:07:05.174Z,3.10
2022-12-02T16:09:31.898Z,3.18
2022-12-02T16:11:58.644Z,3.14
2022-12-02T16:14:25.288Z,3.16
2022-12-02T16:16:51.966Z,3.17
2022-12-02T16:19:20.803Z,3.03
2022-12-02T16:21:47.318Z,3.04
2022-12-02T16:24:13.989Z,3.05
2022-12-02T16:26:42.911Z,3.13
2022-12-02T16:29:09.446Z,3.12
2022-12-02T16:31:36.192Z,3.10
2022-12-02T16:34:03.812Z,2.97
2022-12-02T16:36:30.363Z,3.10
2022-12-02T16:38:56.920Z,3.04
2022-12-02T16:41:23.723Z,2.99
2022-12-02T16:43:50.405Z,2.99
2022-12-02T16:46:17.235Z,2.98
2022-12-02T16:48:44.327Z,2.93
2022-12-02T16:51:10.942Z,3.13
2022-12-02T16:53:37.529Z,3.11
2022-12-02T16:56:04.419Z,3.09
2022-12-02T16:58:30.975Z,3.08
2022-12-02T17:00:57.535Z,3.03
2022-12-02T17:03:24.204Z,3.03
2022-12-02T17:05:50.794Z,2.97
2022-12-02T17:08:17.383Z,2.96
2022-12-02T17:10:44.012Z,2.95
2022-12-02T17:13:10.603Z,3.03
2022-12-02T17:15:40.196Z,3.01
2022-12-02T17:18:07.710Z,2.94
2022-12-02T17:20:35.127Z,2.99
2022-12-02T17:23:01.858Z,2.95
2022-12-02T17:25:28.486Z,3.00
2022-12-02T17:27:58.128Z,3.01
2022-12-02T17:30:24.891Z,3.02
2022-12-02T17:32:56.488Z,3.02
2022-12-02T17:35:23.644Z,2.97
2022-12-02T17:37:50.288Z,2.96
2022-12-02T17:40:16.907Z,3.01
2022-12-02T17:42:43.487Z,3.00
2022-12-02T17:45:10.795Z,3.01
2022-12-02T17:47:37.530Z,3.02
2022-12-02T17:50:04.708Z,2.96
2022-12-02T17:52:31.516Z,2.99
2022-12-02T17:54:58.133Z,2.97
2022-12-02T17:57:24.874Z,2.96
2022-12-02T17:59:51.533Z,2.92
2022-12-02T18:02:18.491Z,2.97
2022-12-02T18:04:45.158Z,2.98
2022-12-02T18:07:15.339Z,2.97
2022-12-02T18:09:42.865Z,2.90
2022-12-02T18:12:10.158Z,2.96
2022-12-02T18:14:36.784Z,2.96
2022-12-02T18:17:03.425Z,2.87
2022-12-02T18:19:30.033Z,3.00
2022-12-02T18:21:56.674Z,2.98
2022-12-02T18:24:23.325Z,2.97
2022-12-02T18:26:52.354Z,2.80
2022-12-02T18:29:21.380Z,2.91
2022-12-02T18:31:47.987Z,2.95
2022-12-02T18:34:16.564Z,2.95
2022-12-02T18:36:45.689Z,2.92
2022-12-02T18:39:12.245Z,2.87
2022-12-02T18:41:38.771Z,2.87
2022-12-02T18:44:05.407Z,2.91
2022-12-02T18:46:34.595Z,2.93
2022-12-02T18:49:03.496Z,2.95
2022-12-02T18:51:30.140Z,2.99
2022-12-02T18:53:56.692Z,2.99
2022-12-02T18:56:24.640Z,2.92
2022-12-02T18:58:53.546Z,2.96
2022-12-02T19:01:20.839Z,2.91
2022-12-02T19:03:47.726Z,2.91
2022-12-02T19:06:16.925Z,2.97
2022-12-02T19:08:43.819Z,2.96
2022-12-02T19:11:10.610Z,2.88
2022-12-02T19:13:40.091Z,2.91
2022-12-02T19:16:07.152Z,2.90
2022-12-02T19:18:34.609Z,2.92
2022-12-02T19:21:02.478Z,2.77
2022-12-02T19:23:30.012Z,2.89
2022-12-02T19:25:56.647Z,2.88
2022-12-02T19:28:23.672Z,2.84
2022-12-02T19:30:50.979Z,2.84
2022-12-02T19:33:17.976Z,2.77
2022-12-02T19:35:46.920Z,2.82
2022-12-02T19:38:16.646Z,2.84
2022-12-02T19:40:45.439Z,2.87
2022-12-02T19:43:13.317Z,2.82
2022-12-02T19:45:39.992Z,2.71
2022-12-02T19:48:06.877Z,2.80
2022-12-02T19:50:33.534Z,2.83
2022-12-02T19:53:00.192Z,2.81
2022-12-02T19:55:26.832Z,2.82
2022-12-02T19:57:53.725Z,2.70
2022-12-02T20:00:25.025Z,2.73
2022-12-02T20:02:51.678Z,2.78
2022-12-02T20:05:21.544Z,2.72
2022-12-02T20:07:48.857Z,2.79
2022-12-02T20:10:16.548Z,2.80
2022-12-02T20:12:43.127Z,2.67
2022-12-02T20:15:10.587Z,2.78
2022-12-02T20:17:37.130Z,2.77
2022-12-02T20:20:06.228Z,2.78
2022-12-02T20:22:32.925Z,2.78
2022-12-02T20:25:01.767Z,2.74
2022-12-02T20:27:28.329Z,2.65
2022-12-02T20:29:54.901Z,2.76
2022-12-02T20:32:21.472Z,2.72
2022-12-02T20:34:48.011Z,2.78
2022-12-02T20:37:14.814Z,2.78
2022-12-02T20:39:42.930Z,2.72
2022-12-02T20:42:10.456Z,2.80
2022-12-02T20:44:36.966Z,2.77
2022-12-02T20:47:03.670Z,2.80
2022-12-02T20:49:35.025Z,2.79
2022-12-02T20:52:01.932Z,2.74
2022-12-02T20:54:28.580Z,2.72
2022-12-02T20:56:57.379Z,2.73
2022-12-02T20:59:23.875Z,2.74
2022-12-02T21:01:50.605Z,2.71
2022-12-02T21:04:17.262Z,2.71
2022-12-02T21:06:43.793Z,2.65
2022-12-02T21:09:12.636Z,2.68
2022-12-02T21:11:39.148Z,2.67
2022-12-02T21:14:05.934Z,2.56
2022-12-02T21:16:32.887Z,2.68
2022-12-02T21:18:59.605Z,2.69
2022-12-02T21:21:26.148Z,2.70
2022-12-02T21:23:52.650Z,2.69
2022-12-02T21:26:19.140Z,2.59
2022-12-02T21:28:45.704Z,2.64
2022-12-02T21:31:12.858Z,2.63
2022-12-02T21:33:39.394Z,2.62
2022-12-02T21:36:06.210Z,2.62
2022-12-02T21:38:32.933Z,2.65
2022-12-02T21:40:59.467Z,2.63
2022-12-02T21:43:28.527Z,2.61
2022-12-02T21:45:55.352Z,2.55
2022-12-02T21:48:22.056Z,2.57
2022-12-02T21:50:50.903Z,2.59
2022-12-02T21:53:17.482Z,2.56
2022-12-02T21:55:44.053Z,2.52
2022-12-02T21:58:10.641Z,2.52
2022-12-02T22:00:37.331Z,2.46
2022-12-02T22:03:04.582Z,2.43
2022-12-02T22:05:31.232Z,2.51
2022-12-02T22:07:57.847Z,2.44
2022-12-02T22:10:25.847Z,2.48
2022-12-02T22:12:52.986Z,2.51
2022-12-02T22:15:21.848Z,2.50
2022-12-02T22:17:48.436Z,2.49
2022-12-02T22:20:16.344Z,2.40
2022-12-02T22:22:43.050Z,2.41
2022-12-02T22:25:10.253Z,2.44
2022-12-02T22:27:36.935Z,2.33
2022-12-02T22:30:09.635Z,2.45
2022-12-02T22:32:36.356Z,2.45
2022-12-02T22:35:05.722Z,2.53
2022-12-02T22:37:32.253Z,2.49
2022-12-02T22:39:58.796Z,2.46
2022-12-02T22:42:25.436Z,2.43
2022-12-02T22:44:52.202Z,2.51
2022-12-02T22:47:18.990Z,2.48
2022-12-02T22:49:45.679Z,2.52
2022-12-02T22:52:12.607Z,2.48
2022-12-02T22:54:39.310Z,2.44
2022-12-02T22:57:05.836Z,2.40
2022-12-02T22:59:32.419Z,2.48
2022-12-02T23:01:59.055Z,2.48
2022-12-02T23:04:25.622Z,2.48
2022-12-02T23:06:52.800Z,2.46
2022-12-02T23:09:19.407Z,2.44
2022-12-02T23:11:48.182Z,2.33
2022-12-02T23:14:14.775Z,2.41
2022-12-02T23:16:41.470Z,2.45
2022-12-02T23:19:08.128Z,2.44
2022-12-02T23:21:34.664Z,2.43
2022-12-02T23:24:01.211Z,2.37
2022-12-02T23:26:29.968Z,2.44
2022-12-02T23:28:56.532Z,2.45
2022-12-02T23:31:23.220Z,2.41
2022-12-02T23:33:49.894Z,2.39
2022-12-02T23:36:16.435Z,2.46
2022-12-02T23:38:43.212Z,2.38
2022-12-02T23:41:09.753Z,2.38
2022-12-02T23:43:36.329Z,2.46
2022-12-02T23:46:03.001Z,2.41
2022-12-02T23:48:29.571Z,2.48
2022-12-02T23:50:56.118Z,2.30
2022-12-02T23:53:22.955Z,2.47
2022-12-02T23:55:49.548Z,2.45
2022-12-02T23:58:16.125Z,2.47
